Terminal Aerodrome Forecast
Issued by NWS

Home | Current Version | Previous Version | Text Only | Print | Product List | Glossary On
Versions: 1 2 3 4 5 6 7 8 9 10 11 12 13 14 15 16 17 18
000
FTUS46 KSEW 021700 RRA
TAFCLM
TAF
KCLM 021755Z 0218/0318 29006KT P6SM BKN060 OVC120
     FM022000 31010KT P6SM -SHRA OVC030
     FM030000 30014KT P6SM VCSH OVC035
     FM030600 28008KT P6SM OVC025=

USA.gov is the U.S. government's official web portal to all federal, state and local government web resources and services.